Latest METARs, TAFs and NOTAMs for WSSL


---------------------------------------------------------------------------
	(OBSERVATIONS)
WSSL 230130Z NIL=
WSSL 230100Z 21003KT 9999 FEW018 SCT150 BKN300 28/24 Q1008 RMK
    0030Z Q1008=
WSSL 230030Z NIL=
WSSL 230000Z VRB01KT 9999 FEW018 SCT150 BKN300 27/24 Q1007 RMK
    2330Z Q1007=
WSSL 222330Z NIL=
WSSL 222300Z 33001KT 9999 FEW018 SCT150 BKN300 27/24 Q1006 RMK
    2230Z Q1006=
---------------------------------------------------------------------------
	(TERMINAL AREA FORECAST)
WSSL 222300Z 2300/2406 35008KT 9999 FEW018CB SCT020
    TEMPO 2305/2311 2500 TSRA FEW012CB BKN015=
---------------------------------------------------------------------------
	(NOTAMS)


WSSL A2379/17 MICROWAVE BARRIER DETECTOR (MBD) FOR RWY INCURSION
    DETECTION IN OPERATION AT ALL RWY HOLDING PSN AND AES EMERG
    ROAD. 04 SEP 05:00 2017 UNTIL PERM. CREATED: 07 AUG 04:34
    2017

WSSL A2492/17 BTN THE HOURS OF SUNSET AND SUNRISE, ARR ON RWY
    21 AND DEP ON RWY 03 SUSPENDED DUE UNSERVICEABILITY OF OBSTRUCTION
    LIGHTS ON OBSTACLE 2NM NORTH OF SELETAR. 21 AUG 00:23 2017
    UNTIL 25 NOV 23:00 2017. CREATED: 21 AUG 00:23 2017

WSSL A3400/17 TWY/TAXILANE CENTRELINE AND INTERMEDIATE HOLDING
    PSN LGT IN OPS BTN HR OF SUNSET AND SUNRISE AND IN POOR VIS.
    04 DEC 10:30 2017 UNTIL PERM. CREATED: 06 NOV 09:20 2017

---------------------------------------------------------------------------